Time;durP1;ratioP1;P1;durP2;ratioP2;P2;SDS_P1;SDS_P2;PMS_P1;PMS_P2;Temp;Humidity;BMP_temperature;BMP_pressure;BME280_temperature;BME280_humidity;BME280_pressure;Samples;Min_cycle;Max_cycle;Signal;HPM_P1;HPM_P2
2023/07/11 00:00:58;;;;;;;3.97;2.30;;;;;;;;;;5033858;28;20041;-77
2023/07/11 00:03:25;;;;;;;3.65;2.40;;;;;;;;;;5034038;28;20052;-79
2023/07/11 00:05:57;;;;;;;4.40;2.20;;;;;;;;;;5033809;28;20049;-77
2023/07/11 00:08:24;;;;;;;4.72;3.00;;;;;;;;;;5033855;28;20044;-77
2023/07/11 00:10:50;;;;;;;3.97;2.60;;;;;;;;;;5033654;28;20120;-77
2023/07/11 00:13:16;;;;;;;4.50;2.30;;;;;;;;;;5034134;28;20046;-77
2023/07/11 00:15:42;;;;;;;6.40;2.60;;;;;;;;;;5033773;28;20095;-77
2023/07/11 00:18:08;;;;;;;4.40;2.47;;;;;;;;;;5033732;28;20049;-78
2023/07/11 00:20:34;;;;;;;4.60;2.60;;;;;;;;;;5033508;28;20049;-77
2023/07/11 00:23:00;;;;;;;5.85;3.00;;;;;;;;;;5033164;28;20045;-77
2023/07/11 00:25:26;;;;;;;4.95;3.00;;;;;;;;;;5033644;28;20045;-77
2023/07/11 00:27:52;;;;;;;5.13;2.75;;;;;;;;;;5031780;28;20057;-77
2023/07/11 00:30:18;;;;;;;5.72;3.10;;;;;;;;;;5034022;28;20107;-77
2023/07/11 00:32:44;;;;;;;4.75;2.88;;;;;;;;;;5033311;28;20069;-77
2023/07/11 00:35:10;;;;;;;5.80;2.78;;;;;;;;;;5033207;28;20044;-77
2023/07/11 00:37:36;;;;;;;7.00;2.30;;;;;;;;;;5033151;28;20041;-77
2023/07/11 00:40:03;;;;;;;4.00;2.03;;;;;;;;;;5033425;28;20089;-77
2023/07/11 00:42:29;;;;;;;4.05;2.30;;;;;;;;;;5033711;28;20041;-79
2023/07/11 00:44:56;;;;;;;3.33;2.00;;;;;;;;;;5032928;28;20120;-78
2023/07/11 00:47:25;;;;;;;3.35;2.08;;;;;;;;;;5031795;28;20215;-77
2023/07/11 00:49:53;;;;;;;4.93;2.10;;;;;;;;;;5033552;28;20059;-77
2023/07/11 00:52:19;;;;;;;5.10;2.55;;;;;;;;;;5033464;28;20045;-77
2023/07/11 00:54:48;;;;;;;5.20;2.15;;;;;;;;;;5033079;28;20135;-77
2023/07/11 00:57:15;;;;;;;3.65;2.25;;;;;;;;;;5033026;28;20048;-77
2023/07/11 00:59:41;;;;;;;3.80;2.13;;;;;;;;;;5037169;28;20041;-77
2023/07/11 01:02:09;;;;;;;4.97;2.25;;;;;;;;;;5037912;28;20044;-77
2023/07/11 01:04:36;;;;;;;3.53;2.10;;;;;;;;;;5037902;28;20456;-77
2023/07/11 01:07:03;;;;;;;5.43;2.28;;;;;;;;;;5033984;28;20037;-77
2023/07/11 01:09:29;;;;;;;4.45;2.42;;;;;;;;;;5033141;28;20506;-77
2023/07/11 01:11:57;;;;;;;3.40;2.38;;;;;;;;;;5032981;28;20085;-77
2023/07/11 01:14:24;;;;;;;6.25;3.08;;;;;;;;;;5032980;28;20054;-77
2023/07/11 01:16:50;;;;;;;4.72;3.05;;;;;;;;;;5032967;28;20053;-77
2023/07/11 01:19:16;;;;;;;5.15;2.60;;;;;;;;;;5033167;28;20042;-77
2023/07/11 01:21:42;;;;;;;4.88;3.00;;;;;;;;;;5032861;28;20048;-77
2023/07/11 01:24:08;;;;;;;6.47;3.00;;;;;;;;;;5037544;28;20041;-79
2023/07/11 01:26:34;;;;;;;5.82;2.88;;;;;;;;;;5036529;28;20060;-77
2023/07/11 01:29:01;;;;;;;5.38;2.42;;;;;;;;;;5036984;28;20085;-77
2023/07/11 01:31:27;;;;;;;3.92;2.17;;;;;;;;;;5036807;28;20053;-78
2023/07/11 01:33:53;;;;;;;5.22;2.50;;;;;;;;;;5036750;28;20064;-77
2023/07/11 01:36:19;;;;;;;4.97;2.42;;;;;;;;;;5038548;28;20408;-77
2023/07/11 01:38:45;;;;;;;5.72;2.35;;;;;;;;;;5037547;28;20124;-78
2023/07/11 01:41:11;;;;;;;3.33;2.70;;;;;;;;;;5036193;28;20045;-77
2023/07/11 01:43:37;;;;;;;5.82;2.65;;;;;;;;;;5036684;28;20053;-77
2023/07/11 01:46:03;;;;;;;5.55;2.50;;;;;;;;;;5036034;28;20118;-77
2023/07/11 01:48:29;;;;;;;6.15;2.85;;;;;;;;;;5036849;28;20048;-77
2023/07/11 01:50:55;;;;;;;7.20;2.80;;;;;;;;;;5036241;28;20050;-77
2023/07/11 01:53:22;;;;;;;6.50;2.95;;;;;;;;;;5036864;28;20140;-77
2023/07/11 01:55:55;;;;;;;4.88;2.60;;;;;;;;;;5038077;28;20103;-77
2023/07/11 01:58:21;;;;;;;7.68;2.60;;;;;;;;;;5036172;28;20045;-77
2023/07/11 02:00:47;;;;;;;3.40;2.53;;;;;;;;;;5036271;28;20041;-77
2023/07/11 02:03:13;;;;;;;4.40;2.40;;;;;;;;;;5035277;28;20100;-77
2023/07/11 02:05:40;;;;;;;5.13;2.47;;;;;;;;;;5036110;28;20046;-77
2023/07/11 02:08:06;;;;;;;2.75;2.20;;;;;;;;;;5036645;28;20129;-77
2023/07/11 02:10:32;;;;;;;3.45;2.22;;;;;;;;;;5036747;28;20124;-77
2023/07/11 02:12:58;;;;;;;5.50;2.88;;;;;;;;;;5035802;28;20045;-77
2023/07/11 02:15:24;;;;;;;3.67;2.45;;;;;;;;;;5032520;28;20048;-77
2023/07/11 02:17:51;;;;;;;5.22;2.30;;;;;;;;;;5016111;28;20130;-77
2023/07/11 02:20:17;;;;;;;4.43;2.30;;;;;;;;;;5016286;28;20042;-77
2023/07/11 02:22:43;;;;;;;3.88;2.28;;;;;;;;;;5016430;28;20456;-77
2023/07/11 02:25:09;;;;;;;7.57;2.40;;;;;;;;;;5016299;28;20115;-77
2023/07/11 02:27:35;;;;;;;6.07;2.75;;;;;;;;;;5015734;28;20135;-77
2023/07/11 02:30:01;;;;;;;6.47;2.28;;;;;;;;;;5016232;28;20053;-77
2023/07/11 02:32:27;;;;;;;3.70;2.40;;;;;;;;;;5015967;28;20096;-78
2023/07/11 02:34:53;;;;;;;3.63;2.05;;;;;;;;;;5015390;28;20496;-77
2023/07/11 02:37:19;;;;;;;7.55;2.25;;;;;;;;;;5015611;28;20077;-77
2023/07/11 02:39:45;;;;;;;3.80;2.38;;;;;;;;;;5016222;28;20042;-77
2023/07/11 02:42:11;;;;;;;6.32;2.63;;;;;;;;;;5015762;28;20045;-77
2023/07/11 02:44:38;;;;;;;5.93;2.45;;;;;;;;;;5014829;28;20042;-77
2023/07/11 02:47:04;;;;;;;3.53;2.13;;;;;;;;;;5015657;28;20147;-77
2023/07/11 02:49:30;;;;;;;3.80;2.40;;;;;;;;;;5016092;28;20048;-77
2023/07/11 02:51:56;;;;;;;3.78;1.90;;;;;;;;;;5015337;28;20112;-77
2023/07/11 02:54:22;;;;;;;3.97;2.38;;;;;;;;;;5015689;28;20049;-77
2023/07/11 02:56:48;;;;;;;3.28;2.13;;;;;;;;;;5015450;28;20052;-77
2023/07/11 02:59:14;;;;;;;6.07;2.50;;;;;;;;;;5015667;28;20045;-77
2023/07/11 03:01:40;;;;;;;5.28;2.40;;;;;;;;;;5015561;28;20188;-77
2023/07/11 03:04:06;;;;;;;5.32;2.83;;;;;;;;;;5015650;28;20052;-77
2023/07/11 03:06:32;;;;;;;7.30;2.40;;;;;;;;;;5014800;28;20400;-77
2023/07/11 03:08:58;;;;;;;7.38;2.45;;;;;;;;;;5014911;28;20382;-77
2023/07/11 03:11:24;;;;;;;4.05;2.75;;;;;;;;;;5014933;28;20354;-79
2023/07/11 03:13:50;;;;;;;5.22;3.30;;;;;;;;;;5015164;28;20480;-77
2023/07/11 03:16:16;;;;;;;3.75;3.00;;;;;;;;;;5014661;28;20528;-77
2023/07/11 03:18:43;;;;;;;4.93;2.88;;;;;;;;;;5014675;28;20433;-77
2023/07/11 03:21:09;;;;;;;5.97;2.88;;;;;;;;;;5014930;28;20042;-79
2023/07/11 03:23:35;;;;;;;5.28;2.78;;;;;;;;;;5015274;28;20119;-77
2023/07/11 03:26:01;;;;;;;8.15;3.25;;;;;;;;;;5014388;28;20045;-77
2023/07/11 03:28:27;;;;;;;4.80;3.10;;;;;;;;;;5014979;28;20053;-77
2023/07/11 03:30:53;;;;;;;6.50;2.70;;;;;;;;;;5014749;28;20049;-77
2023/07/11 03:33:19;;;;;;;3.88;2.67;;;;;;;;;;5014919;28;20077;-77
2023/07/11 03:35:49;;;;;;;3.95;2.60;;;;;;;;;;5015109;28;20042;-77
2023/07/11 03:38:15;;;;;;;5.78;2.88;;;;;;;;;;5014793;28;20096;-77
2023/07/11 03:40:41;;;;;;;8.23;3.50;;;;;;;;;;5014337;28;20057;-77
2023/07/11 03:43:07;;;;;;;5.03;2.55;;;;;;;;;;5014942;28;20133;-77
2023/07/11 03:45:33;;;;;;;5.05;2.72;;;;;;;;;;5013963;28;20038;-77
2023/07/11 03:47:59;;;;;;;7.38;2.90;;;;;;;;;;5014138;28;20345;-78
2023/07/11 03:50:25;;;;;;;5.95;3.15;;;;;;;;;;5014263;28;20060;-77
2023/07/11 03:52:51;;;;;;;4.53;2.90;;;;;;;;;;5014079;28;20311;-77
2023/07/11 03:55:17;;;;;;;5.93;3.42;;;;;;;;;;5013962;28;20484;-78
2023/07/11 03:57:43;;;;;;;6.38;3.30;;;;;;;;;;5014656;28;20465;-77
2023/07/11 04:00:10;;;;;;;5.65;3.38;;;;;;;;;;5014059;28;20049;-77
2023/07/11 04:02:36;;;;;;;6.05;3.65;;;;;;;;;;5014909;28;20038;-78
2023/07/11 04:05:02;;;;;;;4.93;3.28;;;;;;;;;;5014211;28;20046;-77
2023/07/11 04:07:28;;;;;;;7.57;3.55;;;;;;;;;;5013765;28;20128;-77
2023/07/11 04:09:54;;;;;;;4.65;3.33;;;;;;;;;;5013777;28;20449;-77
2023/07/11 04:12:20;;;;;;;5.47;3.70;;;;;;;;;;5014007;28;20492;-77
2023/07/11 04:14:46;;;;;;;6.30;3.38;;;;;;;;;;5014208;28;20368;-77
2023/07/11 04:17:12;;;;;;;5.28;3.30;;;;;;;;;;5013853;28;20129;-77
2023/07/11 04:19:38;;;;;;;6.80;3.55;;;;;;;;;;5013982;28;20060;-77
2023/07/11 04:22:04;;;;;;;7.60;3.70;;;;;;;;;;5013856;28;20045;-77
2023/07/11 04:24:30;;;;;;;6.90;3.80;;;;;;;;;;5014018;28;20046;-77
2023/07/11 04:26:56;;;;;;;6.05;3.58;;;;;;;;;;5013389;28;20104;-77
2023/07/11 04:29:22;;;;;;;10.00;4.10;;;;;;;;;;5014076;28;20169;-77
2023/07/11 04:31:48;;;;;;;5.10;3.45;;;;;;;;;;5013312;28;20412;-77
2023/07/11 04:34:14;;;;;;;9.65;4.13;;;;;;;;;;5013581;28;20100;-77
2023/07/11 04:36:40;;;;;;;6.90;3.70;;;;;;;;;;5013844;28;20046;-77
2023/07/11 04:39:07;;;;;;;6.85;4.00;;;;;;;;;;5013569;28;20061;-77
2023/07/11 04:41:33;;;;;;;6.28;4.10;;;;;;;;;;5013490;28;20056;-77
2023/07/11 04:43:59;;;;;;;6.57;3.70;;;;;;;;;;5013272;28;20364;-77
2023/07/11 04:46:25;;;;;;;8.50;4.28;;;;;;;;;;5013323;28;20099;-78
2023/07/11 04:48:51;;;;;;;6.90;3.60;;;;;;;;;;5017614;28;20054;-77
2023/07/11 04:51:18;;;;;;;9.40;3.80;;;;;;;;;;5018307;28;20069;-78
2023/07/11 04:53:44;;;;;;;6.43;3.78;;;;;;;;;;5018281;28;20048;-78
2023/07/11 04:56:11;;;;;;;4.85;3.70;;;;;;;;;;5013060;28;20373;-77
2023/07/11 04:58:37;;;;;;;9.75;4.40;;;;;;;;;;5013999;28;20050;-77
2023/07/11 05:01:10;;;;;;;7.78;4.35;;;;;;;;;;5013608;28;20041;-77
2023/07/11 05:03:36;;;;;;;10.55;4.53;;;;;;;;;;5013631;28;20085;-77
2023/07/11 05:06:03;;;;;;;7.30;4.95;;;;;;;;;;5013291;28;20054;-77
2023/07/11 05:08:29;;;;;;;8.02;4.32;;;;;;;;;;5013630;28;20132;-77
2023/07/11 05:11:01;;;;;;;8.20;4.80;;;;;;;;;;5012890;28;20518;-77
2023/07/11 05:13:27;;;;;;;6.95;4.32;;;;;;;;;;5013670;28;20050;-77
2023/07/11 05:15:58;;;;;;;7.20;4.93;;;;;;;;;;5012774;28;20408;-77
2023/07/11 05:18:24;;;;;;;10.93;5.20;;;;;;;;;;5013439;28;20499;-77
2023/07/11 05:20:57;;;;;;;8.48;4.93;;;;;;;;;;5011504;28;20408;-77
2023/07/11 05:23:27;;;;;;;8.30;5.07;;;;;;;;;;5013177;28;20045;-77
2023/07/11 05:25:54;;;;;;;7.63;5.35;;;;;;;;;;5012493;28;20042;-77
2023/07/11 05:28:21;;;;;;;6.82;5.22;;;;;;;;;;5012620;28;20073;-78
2023/07/11 05:30:47;;;;;;;10.30;5.00;;;;;;;;;;5012946;28;20064;-78
2023/07/11 05:33:13;;;;;;;9.10;5.20;;;;;;;;;;5013145;28;20057;-77
2023/07/11 05:35:46;;;;;;;7.45;5.13;;;;;;;;;;5012852;28;20042;-77
2023/07/11 05:38:14;;;;;;;9.48;5.78;;;;;;;;;;5013181;28;20416;-77
2023/07/11 05:40:43;;;;;;;9.77;6.22;;;;;;;;;;5012892;28;20057;-77
2023/07/11 05:43:09;;;;;;;7.93;5.53;;;;;;;;;;5012987;28;20038;-77
2023/07/11 05:45:35;;;;;;;8.55;6.20;;;;;;;;;;5012729;28;20049;-77
2023/07/11 05:48:01;;;;;;;10.63;5.97;;;;;;;;;;5012907;28;20042;-77
2023/07/11 05:50:27;;;;;;;8.45;6.07;;;;;;;;;;5013065;28;20052;-77
2023/07/11 05:52:53;;;;;;;9.55;6.10;;;;;;;;;;5012691;28;20042;-77
2023/07/11 05:55:19;;;;;;;11.98;6.43;;;;;;;;;;5013447;28;20108;-77
2023/07/11 05:57:45;;;;;;;10.75;6.15;;;;;;;;;;5013394;28;20048;-77
2023/07/11 06:00:12;;;;;;;9.02;6.18;;;;;;;;;;5012802;28;20037;-77
2023/07/11 06:02:38;;;;;;;8.18;6.00;;;;;;;;;;5013138;28;20042;-78
2023/07/11 06:05:04;;;;;;;11.73;5.97;;;;;;;;;;5012408;28;20112;-77
2023/07/11 06:07:30;;;;;;;9.10;6.13;;;;;;;;;;5012681;28;20128;-77
2023/07/11 06:09:56;;;;;;;10.82;5.72;;;;;;;;;;5016883;28;20077;-77
2023/07/11 06:12:23;;;;;;;7.65;5.55;;;;;;;;;;5016447;28;20070;-77
2023/07/11 06:14:50;;;;;;;10.25;5.85;;;;;;;;;;5016405;28;20099;-77
2023/07/11 06:17:16;;;;;;;8.82;5.88;;;;;;;;;;5016450;28;20037;-78
2023/07/11 06:19:42;;;;;;;8.35;5.65;;;;;;;;;;5016286;28;20041;-77
2023/07/11 06:22:08;;;;;;;11.68;6.60;;;;;;;;;;5016031;28;20049;-77
2023/07/11 06:24:34;;;;;;;9.05;5.70;;;;;;;;;;5016337;28;20081;-78
2023/07/11 06:27:00;;;;;;;8.57;5.80;;;;;;;;;;5015792;28;20057;-78
2023/07/11 06:29:29;;;;;;;7.50;5.32;;;;;;;;;;5016227;28;20066;-77
2023/07/11 06:31:55;;;;;;;6.97;5.75;;;;;;;;;;5015835;28;20469;-77
2023/07/11 06:34:21;;;;;;;9.07;6.05;;;;;;;;;;5016095;28;20469;-77
2023/07/11 06:36:47;;;;;;;9.35;6.15;;;;;;;;;;5015552;28;20139;-78
2023/07/11 06:39:13;;;;;;;12.95;6.15;;;;;;;;;;5015839;28;20046;-77
2023/07/11 06:41:39;;;;;;;8.35;5.97;;;;;;;;;;5015419;28;20452;-77
2023/07/11 06:44:08;;;;;;;12.57;6.75;;;;;;;;;;5015836;28;20056;-77
2023/07/11 06:46:35;;;;;;;10.60;7.22;;;;;;;;;;5015519;28;20045;-77
2023/07/11 06:49:01;;;;;;;10.13;7.10;;;;;;;;;;5015721;28;20049;-78
2023/07/11 06:51:28;;;;;;;9.68;6.95;;;;;;;;;;5015443;28;20104;-78
2023/07/11 06:53:55;;;;;;;10.68;7.03;;;;;;;;;;5015108;28;20444;-78
2023/07/11 06:56:22;;;;;;;9.52;6.93;;;;;;;;;;5015321;28;20046;-78
2023/07/11 06:58:49;;;;;;;9.95;6.90;;;;;;;;;;5015335;28;20048;-79
2023/07/11 07:01:21;;;;;;;12.38;6.82;;;;;;;;;;5015135;28;20049;-78
2023/07/11 07:03:48;;;;;;;11.50;6.60;;;;;;;;;;5015265;28;20108;-78
2023/07/11 07:06:14;;;;;;;8.50;6.22;;;;;;;;;;5014881;28;20484;-77
2023/07/11 07:08:41;;;;;;;12.88;6.25;;;;;;;;;;5015500;28;20048;-78
2023/07/11 07:11:07;;;;;;;8.73;6.13;;;;;;;;;;5013481;28;20050;-78
2023/07/11 07:13:33;;;;;;;8.82;6.20;;;;;;;;;;5015404;28;20129;-78
2023/07/11 07:16:00;;;;;;;9.40;6.03;;;;;;;;;;5015122;28;20042;-78
2023/07/11 07:18:32;;;;;;;8.77;6.25;;;;;;;;;;5015331;28;20046;-78
2023/07/11 07:20:58;;;;;;;8.75;5.97;;;;;;;;;;5014483;28;20151;-78
2023/07/11 07:23:25;;;;;;;11.70;6.80;;;;;;;;;;5014887;28;20132;-78
2023/07/11 07:25:52;;;;;;;10.95;6.47;;;;;;;;;;5014866;28;20072;-77
2023/07/11 07:28:18;;;;;;;11.25;6.20;;;;;;;;;;5015059;28;20054;-78
2023/07/11 07:30:47;;;;;;;9.45;6.30;;;;;;;;;;5014606;28;20459;-78
2023/07/11 07:33:14;;;;;;;11.30;5.75;;;;;;;;;;5014200;28;20100;-78
2023/07/11 07:35:41;;;;;;;8.77;5.90;;;;;;;;;;5014401;28;20092;-78
2023/07/11 07:38:07;;;;;;;8.60;6.60;;;;;;;;;;5014662;28;20104;-78
2023/07/11 07:40:33;;;;;;;9.55;6.63;;;;;;;;;;5014603;28;20120;-78
2023/07/11 07:42:59;;;;;;;9.85;5.78;;;;;;;;;;5015000;28;20050;-78
2023/07/11 07:45:25;;;;;;;10.00;6.20;;;;;;;;;;5014469;28;20037;-77
2023/07/11 07:47:51;;;;;;;9.38;5.78;;;;;;;;;;5014797;28;20073;-78
2023/07/11 07:50:17;;;;;;;9.30;5.95;;;;;;;;;;5014212;28;20053;-78
2023/07/11 07:52:43;;;;;;;9.45;6.55;;;;;;;;;;5014729;28;20042;-78
2023/07/11 07:55:09;;;;;;;9.30;5.72;;;;;;;;;;5014159;28;20042;-78
2023/07/11 07:57:36;;;;;;;6.63;5.50;;;;;;;;;;5014450;28;20481;-78
2023/07/11 08:00:04;;;;;;;7.63;5.55;;;;;;;;;;4996758;28;20049;-78
2023/07/11 08:02:31;;;;;;;10.38;5.35;;;;;;;;;;5013879;28;20057;-78
2023/07/11 08:05:00;;;;;;;7.15;5.75;;;;;;;;;;5014109;28;20050;-78
2023/07/11 08:07:27;;;;;;;7.30;4.88;;;;;;;;;;5014114;28;20048;-78
2023/07/11 08:09:54;;;;;;;7.70;4.75;;;;;;;;;;5013699;28;20089;-77
2023/07/11 08:12:20;;;;;;;8.85;5.28;;;;;;;;;;5012848;28;20475;-78
2023/07/11 08:14:46;;;;;;;8.55;5.03;;;;;;;;;;5014142;28;20042;-78
2023/07/11 08:17:12;;;;;;;7.43;5.20;;;;;;;;;;5013911;28;20189;-78
2023/07/11 08:19:39;;;;;;;7.43;4.80;;;;;;;;;;5013937;28;20485;-78
2023/07/11 08:22:06;;;;;;;10.15;5.30;;;;;;;;;;5013921;28;20081;-78
2023/07/11 08:24:32;;;;;;;9.45;5.20;;;;;;;;;;5014454;28;20092;-78
2023/07/11 08:26:58;;;;;;;6.75;4.95;;;;;;;;;;5013712;28;20054;-78
2023/07/11 08:29:24;;;;;;;7.20;4.63;;;;;;;;;;5013502;28;20496;-78
2023/07/11 08:31:50;;;;;;;9.25;4.75;;;;;;;;;;5013462;28;20050;-78
2023/07/11 08:34:16;;;;;;;6.60;4.80;;;;;;;;;;5014798;28;20048;-78
2023/07/11 08:36:44;;;;;;;7.82;4.70;;;;;;;;;;5016769;28;20069;-78
2023/07/11 08:39:12;;;;;;;8.13;4.03;;;;;;;;;;5017921;28;20070;-78
2023/07/11 08:41:41;;;;;;;5.97;4.63;;;;;;;;;;5018680;28;20049;-78
2023/07/11 08:44:12;;;;;;;7.22;4.25;;;;;;;;;;5015392;28;20878;-78
2023/07/11 08:46:40;;;;;;;6.18;4.30;;;;;;;;;;5014228;28;20053;-78
2023/07/11 08:49:07;;;;;;;7.43;4.50;;;;;;;;;;5014184;28;20041;-78
2023/07/11 08:51:36;;;;;;;7.95;4.28;;;;;;;;;;5013684;28;20041;-78
2023/07/11 08:54:02;;;;;;;6.72;4.30;;;;;;;;;;5013849;28;20124;-79
2023/07/11 08:56:36;;;;;;;7.40;3.80;;;;;;;;;;5013461;28;20120;-79
2023/07/11 08:59:04;;;;;;;7.20;4.10;;;;;;;;;;5014462;28;20096;-80
2023/07/11 09:01:37;;;;;;;6.97;3.95;;;;;;;;;;5015206;28;20045;-80
2023/07/11 09:04:04;;;;;;;7.50;4.03;;;;;;;;;;5017772;28;20046;-82
2023/07/11 09:06:36;;;;;;;9.05;4.30;;;;;;;;;;5014531;28;20046;-80
2023/07/11 09:09:02;;;;;;;6.53;3.72;;;;;;;;;;5014031;28;20112;-78
2023/07/11 09:11:34;;;;;;;6.07;3.60;;;;;;;;;;5013310;28;20049;-78
2023/07/11 09:14:22;;;;;;;6.40;3.20;;;;;;;;;;5013830;28;20046;-78
2023/07/11 09:17:07;;;;;;;4.82;3.30;;;;;;;;;;5011951;28;20448;-78
2023/07/11 09:19:35;;;;;;;6.72;3.10;;;;;;;;;;5013159;28;20465;-78
2023/07/11 09:22:15;;;;;;;6.85;3.60;;;;;;;;;;5013069;28;20042;-78
2023/07/11 09:24:41;;;;;;;6.85;3.63;;;;;;;;;;5012934;28;20046;-78
2023/07/11 09:27:13;;;;;;;5.25;3.38;;;;;;;;;;5012614;28;20064;-78
2023/07/11 09:29:44;;;;;;;5.60;3.72;;;;;;;;;;5013886;28;20034;-78
2023/07/11 09:32:11;;;;;;;6.70;4.45;;;;;;;;;;5013381;28;20038;-78
2023/07/11 09:34:39;;;;;;;7.32;4.13;;;;;;;;;;5013364;28;20042;-78
2023/07/11 09:37:14;;;;;;;10.32;4.30;;;;;;;;;;5011793;28;20042;-79
2023/07/11 09:39:47;;;;;;;5.50;3.42;;;;;;;;;;5013460;28;20037;-78
2023/07/11 09:42:18;;;;;;;7.72;3.20;;;;;;;;;;5012669;28;20096;-78
2023/07/11 09:44:57;;;;;;;7.68;3.30;;;;;;;;;;5016674;28;20050;-78
2023/07/11 09:47:23;;;;;;;6.70;3.67;;;;;;;;;;5017436;28;20068;-78
2023/07/11 09:49:51;;;;;;;5.78;3.50;;;;;;;;;;5017229;28;20120;-78
2023/07/11 09:52:26;;;;;;;7.15;3.38;;;;;;;;;;5016727;28;20132;-78
2023/07/11 09:54:53;;;;;;;6.47;3.72;;;;;;;;;;5017436;28;20057;-78
2023/07/11 09:57:19;;;;;;;6.10;3.58;;;;;;;;;;5016902;28;20089;-78
2023/07/11 09:59:53;;;;;;;5.53;3.20;;;;;;;;;;5016796;28;20069;-78
2023/07/11 10:02:21;;;;;;;5.10;3.00;;;;;;;;;;5016814;28;20064;-78
2023/07/11 10:04:49;;;;;;;6.78;3.67;;;;;;;;;;5016810;28;20068;-78
2023/07/11 10:07:16;;;;;;;5.90;3.53;;;;;;;;;;5016573;28;20050;-78
2023/07/11 10:09:46;;;;;;;5.03;3.20;;;;;;;;;;5016876;28;20049;-78
2023/07/11 10:12:14;;;;;;;5.53;3.20;;;;;;;;;;5016618;28;20489;-78
2023/07/11 10:14:41;;;;;;;6.53;3.83;;;;;;;;;;5016576;28;20053;-78
2023/07/11 10:17:31;;;;;;;6.40;3.72;;;;;;;;;;5016765;28;20147;-78
2023/07/11 10:19:59;;;;;;;5.07;3.33;;;;;;;;;;5016255;28;20061;-78
2023/07/11 10:22:26;;;;;;;5.95;3.30;;;;;;;;;;5016518;28;20053;-78
2023/07/11 10:24:59;;;;;;;9.07;3.80;;;;;;;;;;5016655;28;20053;-78
2023/07/11 10:27:28;;;;;;;4.82;3.60;;;;;;;;;;5016664;28;20167;-78
2023/07/11 10:29:56;;;;;;;7.57;3.80;;;;;;;;;;5017115;28;20164;-79
2023/07/11 10:32:31;;;;;;;7.53;4.05;;;;;;;;;;5015818;28;20046;-78
2023/07/11 10:35:00;;;;;;;6.88;3.75;;;;;;;;;;5016432;28;20170;-78
2023/07/11 10:37:30;;;;;;;6.70;3.65;;;;;;;;;;5016573;28;20081;-78
2023/07/11 10:40:04;;;;;;;6.53;3.65;;;;;;;;;;5016069;28;20125;-78
2023/07/11 10:42:38;;;;;;;7.95;3.70;;;;;;;;;;5016055;28;20056;-78
2023/07/11 10:45:11;;;;;;;6.60;4.43;;;;;;;;;;5016209;28;20044;-78
2023/07/11 10:47:41;;;;;;;6.75;4.22;;;;;;;;;;5016081;28;20104;-78
2023/07/11 10:50:26;;;;;;;7.60;3.90;;;;;;;;;;5016301;28;20034;-78
2023/07/11 10:52:54;;;;;;;7.63;3.90;;;;;;;;;;5016377;28;20042;-78
2023/07/11 10:55:25;;;;;;;6.15;4.20;;;;;;;;;;5014417;28;20125;-78
2023/07/11 10:57:56;;;;;;;8.50;4.40;;;;;;;;;;5015833;28;20124;-78
2023/07/11 11:00:27;;;;;;;6.20;3.60;;;;;;;;;;5015636;28;20044;-78
2023/07/11 11:03:18;;;;;;;6.38;3.72;;;;;;;;;;5015167;28;20412;-78
2023/07/11 11:05:56;;;;;;;8.75;4.38;;;;;;;;;;5015567;28;20124;-79
2023/07/11 11:08:31;;;;;;;7.40;3.90;;;;;;;;;;5015603;28;20084;-78
2023/07/11 11:11:23;;;;;;;6.20;4.03;;;;;;;;;;5015284;28;20049;-78
2023/07/11 11:14:00;;;;;;;6.30;3.80;;;;;;;;;;5013991;28;20050;-78
2023/07/11 11:16:35;;;;;;;6.95;3.65;;;;;;;;;;5014358;28;20081;-78
2023/07/11 11:19:07;;;;;;;7.13;4.10;;;;;;;;;;5015495;28;20042;-78
2023/07/11 11:21:53;;;;;;;7.88;3.70;;;;;;;;;;5015117;28;20527;-78
2023/07/11 11:24:38;;;;;;;5.72;3.40;;;;;;;;;;5016128;28;20068;-78
2023/07/11 11:27:15;;;;;;;5.80;3.25;;;;;;;;;;5015676;28;20073;-78
2023/07/11 11:30:03;;;;;;;10.93;3.30;;;;;;;;;;5015423;28;20057;-78
2023/07/11 11:32:31;;;;;;;4.85;3.03;;;;;;;;;;5015370;28;20042;-78
2023/07/11 11:35:16;;;;;;;8.00;3.65;;;;;;;;;;5015821;28;20416;-78
2023/07/11 11:38:11;;;;;;;5.40;3.80;;;;;;;;;;5015521;28;20046;-78
2023/07/11 11:40:39;;;;;;;6.03;3.58;;;;;;;;;;5010313;28;20108;-78
2023/07/11 11:43:15;;;;;;;10.20;4.40;;;;;;;;;;5015707;28;20087;-79
2023/07/11 11:45:42;;;;;;;6.75;3.80;;;;;;;;;;5015952;28;20049;-78
2023/07/11 11:48:15;;;;;;;7.25;4.15;;;;;;;;;;5016024;28;20042;-78
2023/07/11 11:50:41;;;;;;;6.53;3.60;;;;;;;;;;5015981;28;20050;-78
2023/07/11 11:53:26;;;;;;;10.00;3.58;;;;;;;;;;5016136;28;20037;-78
2023/07/11 11:55:55;;;;;;;6.65;3.25;;;;;;;;;;5016218;28;20057;-78
2023/07/11 11:58:21;;;;;;;6.13;3.95;;;;;;;;;;5016297;28;20095;-78
2023/07/11 12:00:50;;;;;;;6.03;3.17;;;;;;;;;;5015134;28;20099;-78
2023/07/11 12:03:22;;;;;;;4.90;3.33;;;;;;;;;;5016028;28;20114;-79
2023/07/11 12:05:49;;;;;;;8.43;3.15;;;;;;;;;;5014176;28;20041;-78
2023/07/11 12:08:18;;;;;;;5.65;3.30;;;;;;;;;;5015310;28;20068;-79
2023/07/11 12:11:02;;;;;;;6.28;3.33;;;;;;;;;;5015371;28;20089;-78
2023/07/11 12:13:30;;;;;;;7.88;3.50;;;;;;;;;;5015047;28;20068;-78
2023/07/11 12:15:57;;;;;;;8.20;3.33;;;;;;;;;;5022473;28;20447;-78
2023/07/11 12:18:28;;;;;;;7.93;3.35;;;;;;;;;;5034651;28;20051;-78
2023/07/11 12:21:12;;;;;;;5.97;3.63;;;;;;;;;;5033593;28;20057;-78
2023/07/11 12:23:40;;;;;;;7.35;3.20;;;;;;;;;;5034161;28;20045;-78
2023/07/11 12:26:26;;;;;;;7.53;3.58;;;;;;;;;;5034099;28;20033;-78
2023/07/11 12:28:52;;;;;;;5.63;3.15;;;;;;;;;;5034473;28;20063;-78
2023/07/11 12:31:20;;;;;;;6.07;3.00;;;;;;;;;;5035816;28;20099;-78
2023/07/11 12:33:55;;;;;;;5.30;2.70;;;;;;;;;;5039054;28;20046;-78
2023/07/11 12:36:34;;;;;;;4.50;2.67;;;;;;;;;;5039299;28;20041;-78
2023/07/11 12:39:00;;;;;;;7.13;2.97;;;;;;;;;;5035894;28;20118;-78
2023/07/11 12:41:29;;;;;;;4.45;2.30;;;;;;;;;;5033880;28;20049;-78
2023/07/11 12:43:55;;;;;;;3.47;1.88;;;;;;;;;;5034458;28;20128;-78
2023/07/11 12:46:27;;;;;;;4.00;1.98;;;;;;;;;;5033792;28;20041;-78
2023/07/11 12:48:53;;;;;;;3.38;1.70;;;;;;;;;;5033711;28;20484;-79
2023/07/11 12:51:28;;;;;;;4.38;2.33;;;;;;;;;;5033130;28;20400;-78
2023/07/11 12:54:20;;;;;;;4.43;2.08;;;;;;;;;;5033669;28;20092;-78
2023/07/11 12:56:50;;;;;;;3.85;2.22;;;;;;;;;;5012693;28;20049;-78
2023/07/11 12:59:24;;;;;;;4.35;2.13;;;;;;;;;;5014071;28;20084;-78
2023/07/11 13:01:50;;;;;;;2.65;1.90;;;;;;;;;;5013463;28;20041;-78
2023/07/11 13:04:28;;;;;;;4.97;2.13;;;;;;;;;;5013530;28;20053;-78
2023/07/11 13:06:56;;;;;;;3.08;2.00;;;;;;;;;;5013748;28;20107;-79
2023/07/11 13:09:23;;;;;;;3.13;1.90;;;;;;;;;;5013451;28;20046;-78
2023/07/11 13:11:49;;;;;;;2.88;1.70;;;;;;;;;;5013383;28;20050;-78
2023/07/11 13:14:16;;;;;;;3.83;1.80;;;;;;;;;;5013594;28;20383;-79
2023/07/11 13:16:43;;;;;;;4.80;2.00;;;;;;;;;;5013061;28;20123;-78
2023/07/11 13:19:16;;;;;;;3.95;2.00;;;;;;;;;;5016244;28;20050;-78
2023/07/11 13:21:43;;;;;;;2.33;1.90;;;;;;;;;;5017020;28;20049;-78
2023/07/11 13:24:13;;;;;;;4.40;2.10;;;;;;;;;;5017195;28;20184;-78
2023/07/11 13:26:40;;;;;;;2.78;1.90;;;;;;;;;;5017054;28;20037;-78
2023/07/11 13:29:06;;;;;;;4.35;2.40;;;;;;;;;;5016945;28;20050;-78
2023/07/11 13:31:33;;;;;;;4.03;2.20;;;;;;;;;;5017208;28;20042;-78
2023/07/11 13:34:03;;;;;;;3.88;2.25;;;;;;;;;;5016914;28;20069;-78
2023/07/11 13:36:30;;;;;;;3.53;2.28;;;;;;;;;;5016989;28;20362;-78
2023/07/11 13:39:00;;;;;;;2.65;2.03;;;;;;;;;;5017152;28;20049;-78
2023/07/11 13:41:32;;;;;;;4.32;1.90;;;;;;;;;;5017029;28;20042;-78
2023/07/11 13:44:02;;;;;;;3.35;1.98;;;;;;;;;;5017574;28;20042;-78
2023/07/11 13:46:32;;;;;;;3.97;2.30;;;;;;;;;;5016905;28;20046;-78
2023/07/11 13:49:07;;;;;;;6.57;2.67;;;;;;;;;;5017306;28;20037;-78
2023/07/11 13:51:35;;;;;;;2.95;2.03;;;;;;;;;;5016868;28;20108;-78
2023/07/11 13:54:13;;;;;;;2.72;1.95;;;;;;;;;;5016929;28;20046;-78
2023/07/11 13:56:39;;;;;;;3.53;2.13;;;;;;;;;;5016560;28;20060;-78
2023/07/11 13:59:05;;;;;;;3.85;2.03;;;;;;;;;;5016695;28;20046;-78
2023/07/11 14:01:33;;;;;;;3.05;1.85;;;;;;;;;;5016783;28;20053;-78
2023/07/11 14:04:00;;;;;;;3.53;2.08;;;;;;;;;;5016831;28;20042;-78
2023/07/11 14:06:26;;;;;;;2.35;1.50;;;;;;;;;;5016295;28;20056;-78
2023/07/11 14:08:52;;;;;;;3.30;2.00;;;;;;;;;;5032279;28;20082;-78
2023/07/11 14:11:29;;;;;;;3.33;1.80;;;;;;;;;;5016142;28;20607;-78
2023/07/11 14:13:55;;;;;;;3.50;1.80;;;;;;;;;;5016571;28;20504;-78
2023/07/11 14:16:22;;;;;;;4.65;2.05;;;;;;;;;;5027248;28;20068;-78
2023/07/11 14:18:49;;;;;;;3.38;1.75;;;;;;;;;;5035738;28;20504;-78
2023/07/11 14:21:16;;;;;;;3.85;1.73;;;;;;;;;;5036232;28;20120;-78
2023/07/11 14:23:42;;;;;;;3.13;1.70;;;;;;;;;;5035763;28;20109;-78
2023/07/11 14:26:08;;;;;;;2.28;1.60;;;;;;;;;;5036256;28;20037;-78
2023/07/11 14:28:34;;;;;;;2.30;1.80;;;;;;;;;;5035389;28;20356;-78
2023/07/11 14:31:01;;;;;;;2.85;1.92;;;;;;;;;;5035835;28;20057;-78
2023/07/11 14:33:33;;;;;;;3.25;1.70;;;;;;;;;;5036216;28;20045;-78
2023/07/11 14:36:00;;;;;;;3.38;1.85;;;;;;;;;;5035940;28;20045;-78
2023/07/11 14:38:27;;;;;;;2.80;2.05;;;;;;;;;;5035909;28;20041;-78
2023/07/11 14:40:54;;;;;;;4.93;2.25;;;;;;;;;;5035820;28;20410;-78
2023/07/11 14:43:21;;;;;;;5.57;2.20;;;;;;;;;;5036148;28;20045;-78
2023/07/11 14:45:47;;;;;;;5.15;2.05;;;;;;;;;;5035652;28;20561;-78
2023/07/11 14:48:18;;;;;;;3.40;1.92;;;;;;;;;;5035755;28;20041;-78
2023/07/11 14:50:45;;;;;;;5.35;1.95;;;;;;;;;;5036284;28;20045;-78